Time;durP1;ratioP1;P1;durP2;ratioP2;P2;SDS_P1;SDS_P2;PMS_P1;PMS_P2;Temp;Humidity;BMP_temperature;BMP_pressure;BME280_temperature;BME280_humidity;BME280_pressure;Samples;Min_cycle;Max_cycle;Signal;HPM_P1;HPM_P2
2022/11/22 00:01:22;;;;;;;14.67;6.60;;;4.60;86.70;;;;;;5070366;28;20574;-70
2022/11/22 00:03:49;;;;;;;14.35;6.85;;;4.60;86.40;;;;;;5071155;28;20245;-70
2022/11/22 00:06:18;;;;;;;14.73;6.80;;;4.50;86.40;;;;;;5064794;28;20076;-70
2022/11/22 00:08:45;;;;;;;14.30;6.57;;;4.50;86.50;;;;;;5051180;28;20049;-70
2022/11/22 00:11:12;;;;;;;13.77;6.63;;;4.50;86.80;;;;;;5051016;28;20083;-70
2022/11/22 00:13:39;;;;;;;13.80;5.90;;;4.60;86.90;;;;;;5050651;28;20489;-70
2022/11/22 00:16:06;;;;;;;15.35;6.63;;;4.60;87.00;;;;;;5056216;28;20387;-70
2022/11/22 00:18:33;;;;;;;15.63;6.82;;;4.70;86.70;;;;;;5053782;28;20094;-70
2022/11/22 00:21:05;;;;;;;14.52;6.60;;;4.70;86.80;;;;;;5070448;28;20056;-70
2022/11/22 00:23:34;;;;;;;14.57;6.80;;;4.70;86.70;;;;;;5064909;28;20977;-70
2022/11/22 00:26:01;;;;;;;14.77;7.07;;;4.70;86.60;;;;;;5051520;28;20491;-70
2022/11/22 00:28:28;;;;;;;12.90;5.97;;;4.70;86.80;;;;;;5050510;28;20280;-70
2022/11/22 00:30:55;;;;;;;14.13;6.07;;;4.70;86.60;;;;;;5049005;28;20079;-70
2022/11/22 00:33:22;;;;;;;14.85;6.00;;;4.70;86.40;;;;;;5054050;28;20704;-70
2022/11/22 00:35:49;;;;;;;14.35;6.00;;;4.70;86.30;;;;;;5070215;28;20546;-70
2022/11/22 00:38:16;;;;;;;14.50;6.30;;;4.70;86.60;;;;;;5070594;28;20045;-70
2022/11/22 00:40:45;;;;;;;15.43;6.18;;;4.70;86.50;;;;;;5066227;28;20379;-70
2022/11/22 00:43:12;;;;;;;13.93;6.40;;;4.70;87.40;;;;;;5051369;28;20834;-70
2022/11/22 00:45:41;;;;;;;13.90;6.18;;;4.70;87.10;;;;;;5050156;28;20405;-70
2022/11/22 00:48:09;;;;;;;12.88;6.38;;;4.70;86.70;;;;;;5049717;28;20503;-70
2022/11/22 00:50:36;;;;;;;13.80;6.33;;;4.70;86.60;;;;;;5053884;28;20045;-70
2022/11/22 00:53:04;;;;;;;14.05;6.22;;;4.80;87.30;;;;;;5053545;28;20269;-70
2022/11/22 00:55:31;;;;;;;13.18;6.25;;;4.80;86.90;;;;;;5069993;28;20179;-70
2022/11/22 00:57:59;;;;;;;14.38;6.45;;;4.80;86.60;;;;;;5068762;28;20080;-70
2022/11/22 01:00:26;;;;;;;13.55;6.30;;;4.80;86.40;;;;;;5049620;28;20049;-70
2022/11/22 01:02:54;;;;;;;13.70;6.20;;;4.80;86.50;;;;;;5049907;28;20858;-70
2022/11/22 01:05:21;;;;;;;15.82;6.47;;;4.80;86.70;;;;;;5049673;28;20269;-70
2022/11/22 01:07:48;;;;;;;12.77;6.22;;;4.80;86.50;;;;;;5067196;28;20052;-70
2022/11/22 01:10:15;;;;;;;13.63;6.35;;;4.80;86.60;;;;;;5069757;28;20052;-70
2022/11/22 01:12:42;;;;;;;13.45;6.07;;;4.80;86.40;;;;;;5069630;28;20052;-70
2022/11/22 01:15:11;;;;;;;14.27;6.83;;;4.80;86.30;;;;;;5070151;28;20076;-70
2022/11/22 01:17:38;;;;;;;15.25;6.25;;;4.80;86.30;;;;;;5065960;28;20264;-70
2022/11/22 01:20:06;;;;;;;17.40;6.75;;;4.80;86.30;;;;;;5049149;28;20056;-70
2022/11/22 01:22:33;;;;;;;16.25;6.60;;;4.80;86.10;;;;;;5049335;28;20038;-70
2022/11/22 01:25:00;;;;;;;13.45;6.38;;;4.70;86.20;;;;;;5064355;28;20052;-70
2022/11/22 01:27:27;;;;;;;17.07;7.30;;;4.70;86.20;;;;;;5070225;28;20639;-70
2022/11/22 01:29:54;;;;;;;15.35;7.25;;;4.70;86.20;;;;;;5070442;28;20690;-70
2022/11/22 01:32:23;;;;;;;15.32;7.00;;;4.70;86.40;;;;;;5069997;28;20045;-70
2022/11/22 01:34:50;;;;;;;17.15;7.35;;;4.70;87.00;;;;;;5054527;28;20037;-70
2022/11/22 01:37:17;;;;;;;15.90;7.78;;;4.80;87.00;;;;;;5069718;28;20053;-70
2022/11/22 01:39:44;;;;;;;14.40;6.77;;;4.80;86.90;;;;;;5069258;28;20052;-70
2022/11/22 01:42:12;;;;;;;15.80;7.25;;;4.90;86.60;;;;;;5052534;28;20258;-70
2022/11/22 01:44:40;;;;;;;15.60;7.20;;;4.90;86.60;;;;;;5069240;28;20041;-70
2022/11/22 01:47:11;;;;;;;16.02;7.45;;;4.90;86.40;;;;;;5069278;28;20532;-70
2022/11/22 01:49:44;;;;;;;17.80;7.57;;;4.90;86.40;;;;;;5070285;28;20173;-70
2022/11/22 01:52:15;;;;;;;17.30;7.00;;;4.90;86.20;;;;;;5068592;28;20049;-70
2022/11/22 01:54:47;;;;;;;17.50;7.18;;;4.90;86.10;;;;;;5070537;28;20302;-70
2022/11/22 01:57:18;;;;;;;13.75;6.70;;;4.80;86.20;;;;;;5069073;28;20140;-70
2022/11/22 01:59:50;;;;;;;15.65;6.53;;;4.80;86.60;;;;;;5068537;28;20147;-70
2022/11/22 02:02:18;;;;;;;15.27;6.80;;;4.80;86.40;;;;;;5069098;28;20045;-70
2022/11/22 02:04:47;;;;;;;16.73;7.30;;;4.70;86.40;;;;;;5052231;28;20037;-70
2022/11/22 02:07:19;;;;;;;16.73;6.75;;;4.70;86.50;;;;;;5065973;28;20284;-70
2022/11/22 02:09:49;;;;;;;15.25;7.85;;;4.70;86.60;;;;;;5049929;28;20064;-70
2022/11/22 02:12:19;;;;;;;18.30;6.93;;;4.80;87.10;;;;;;5050329;28;20088;-70
2022/11/22 02:14:46;;;;;;;15.95;7.00;;;4.90;87.50;;;;;;5050245;28;20060;-70
2022/11/22 02:17:14;;;;;;;15.23;6.80;;;4.90;87.40;;;;;;5058083;28;20041;-70
2022/11/22 02:19:43;;;;;;;14.25;6.47;;;5.00;87.10;;;;;;5068564;28;20284;-70
2022/11/22 02:22:24;;;;;;;15.27;6.45;;;5.00;87.20;;;;;;5072296;28;20672;-70
2022/11/22 02:24:55;;;;;;;14.85;6.65;;;5.00;87.50;;;;;;5066097;28;20788;-70
2022/11/22 02:27:24;;;;;;;15.18;6.78;;;5.00;86.90;;;;;;5053953;28;20053;-70
2022/11/22 02:29:51;;;;;;;14.87;6.77;;;5.00;86.50;;;;;;5051786;28;20053;-70
2022/11/22 02:32:18;;;;;;;14.68;6.93;;;5.00;86.40;;;;;;5052354;28;20257;-70
2022/11/22 02:34:46;;;;;;;18.25;7.50;;;5.00;86.40;;;;;;5058016;28;20051;-70
2022/11/22 02:37:17;;;;;;;17.25;7.03;;;5.00;86.50;;;;;;5072409;28;20048;-70
2022/11/22 02:39:47;;;;;;;15.95;6.75;;;5.00;86.50;;;;;;5072010;28;20055;-70
2022/11/22 02:42:14;;;;;;;14.87;6.87;;;5.00;86.60;;;;;;5072735;28;20195;-70
2022/11/22 02:44:42;;;;;;;14.10;6.10;;;5.00;86.70;;;;;;5073453;28;20291;-70
2022/11/22 02:47:09;;;;;;;14.23;6.72;;;5.00;86.80;;;;;;5073510;28;20123;-70
2022/11/22 02:49:36;;;;;;;14.52;6.60;;;5.00;86.60;;;;;;5071807;28;20048;-70
2022/11/22 02:52:04;;;;;;;14.35;6.55;;;5.00;86.50;;;;;;5072120;28;21201;-70
2022/11/22 02:54:31;;;;;;;15.03;7.23;;;5.00;86.50;;;;;;5071961;28;20056;-70
2022/11/22 02:56:58;;;;;;;13.65;6.25;;;5.00;86.40;;;;;;5073533;28;20287;-70
2022/11/22 02:59:25;;;;;;;13.98;6.55;;;5.00;86.50;;;;;;5072866;28;20536;-70
2022/11/22 03:01:54;;;;;;;13.20;6.30;;;5.00;86.60;;;;;;5051266;28;20131;-70
2022/11/22 03:04:27;;;;;;;15.10;7.00;;;5.00;86.80;;;;;;5053435;28;20120;-70
2022/11/22 03:06:56;;;;;;;14.60;6.03;;;5.00;86.90;;;;;;5051625;28;20050;-70
2022/11/22 03:09:23;;;;;;;14.98;6.35;;;5.00;86.80;;;;;;5055573;28;20278;-70
2022/11/22 03:11:51;;;;;;;13.88;6.35;;;5.00;86.70;;;;;;5071726;28;20049;-70
2022/11/22 03:14:18;;;;;;;13.90;6.53;;;5.00;86.70;;;;;;5073634;28;20049;-70
2022/11/22 03:16:46;;;;;;;12.88;6.85;;;5.00;86.80;;;;;;5072961;28;20041;-70
2022/11/22 03:19:15;;;;;;;15.03;7.03;;;5.00;86.70;;;;;;5053521;28;20053;-70
2022/11/22 03:21:43;;;;;;;16.33;6.85;;;5.00;86.90;;;;;;5053179;28;20257;-70
2022/11/22 03:24:11;;;;;;;16.25;6.65;;;5.00;86.80;;;;;;5052757;28;20144;-70
2022/11/22 03:26:38;;;;;;;15.68;6.70;;;5.00;86.80;;;;;;5051490;28;20055;-70
2022/11/22 03:29:06;;;;;;;15.43;6.30;;;5.00;86.90;;;;;;5072363;28;20502;-70
2022/11/22 03:31:33;;;;;;;14.67;6.67;;;5.00;86.80;;;;;;5073225;28;20061;-70
2022/11/22 03:34:00;;;;;;;14.00;6.40;;;5.00;86.90;;;;;;5072866;28;20264;-70
2022/11/22 03:36:28;;;;;;;15.20;6.38;;;5.00;86.90;;;;;;5053801;28;20088;-70
2022/11/22 03:38:55;;;;;;;13.95;6.60;;;5.00;86.80;;;;;;5050692;28;20176;-70
2022/11/22 03:41:22;;;;;;;15.25;7.18;;;5.00;86.70;;;;;;5052283;28;20523;-70
2022/11/22 03:43:49;;;;;;;14.63;6.80;;;5.00;86.80;;;;;;5058199;28;20132;-70
2022/11/22 03:46:19;;;;;;;12.32;6.25;;;5.00;86.80;;;;;;5072584;28;20286;-70
2022/11/22 03:48:46;;;;;;;13.80;6.25;;;5.00;86.90;;;;;;5070851;28;20368;-70
2022/11/22 03:51:13;;;;;;;15.20;6.63;;;5.00;86.90;;;;;;5075680;28;20084;-70
2022/11/22 03:53:42;;;;;;;13.80;6.35;;;5.00;86.90;;;;;;5054207;28;20127;-70
2022/11/22 03:56:09;;;;;;;16.00;6.90;;;5.00;86.90;;;;;;5052642;28;20507;-70
2022/11/22 03:58:36;;;;;;;13.93;6.38;;;5.00;87.10;;;;;;5050929;28;20267;-70
2022/11/22 04:01:03;;;;;;;12.20;6.22;;;5.00;87.10;;;;;;5054662;28;20118;-70
2022/11/22 04:03:31;;;;;;;15.23;6.70;;;5.10;87.10;;;;;;5072265;28;20047;-70
2022/11/22 04:05:58;;;;;;;12.80;6.43;;;5.10;87.20;;;;;;5070811;28;20059;-70
2022/11/22 04:08:25;;;;;;;14.23;6.33;;;5.10;87.20;;;;;;5070960;28;20144;-70
2022/11/22 04:10:53;;;;;;;14.40;6.80;;;5.10;87.20;;;;;;5055592;28;20725;-70
2022/11/22 04:13:20;;;;;;;13.43;6.50;;;5.10;87.10;;;;;;5050909;28;20422;-70
2022/11/22 04:15:46;;;;;;;13.68;6.22;;;5.10;87.20;;;;;;5052346;28;20049;-70
2022/11/22 04:18:14;;;;;;;15.90;6.60;;;5.10;87.20;;;;;;5063338;28;20124;-70
2022/11/22 04:23:26;;;;;;;15.57;6.60;;;5.20;87.20;;;;;;5071686;28;21101;-70
2022/11/22 04:25:54;;;;;;;13.18;6.50;;;5.20;87.30;;;;;;5072227;28;20127;-70
2022/11/22 04:28:23;;;;;;;12.75;6.35;;;5.30;87.30;;;;;;5054358;28;20056;-70
2022/11/22 04:33:36;;;;;;;14.27;7.13;;;5.30;87.30;;;;;;5050419;28;20045;-70
2022/11/22 04:36:04;;;;;;;12.32;6.30;;;5.30;87.20;;;;;;5066698;28;20275;-70
2022/11/22 04:38:31;;;;;;;15.40;6.60;;;5.30;87.20;;;;;;5070561;28;20049;-70
2022/11/22 04:40:59;;;;;;;13.93;6.60;;;5.30;87.10;;;;;;5053630;28;20082;-70
2022/11/22 04:46:15;;;;;;;13.97;6.40;;;5.30;87.20;;;;;;5071876;28;20457;-70
2022/11/22 04:48:42;;;;;;;11.48;6.28;;;5.30;87.20;;;;;;5071195;28;20395;-70
2022/11/22 04:53:59;;;;;;;12.25;6.25;;;5.30;87.40;;;;;;5069856;28;21033;-70
2022/11/22 04:56:27;;;;;;;13.00;6.00;;;5.40;87.50;;;;;;5071306;28;20133;-70
2022/11/22 04:58:54;;;;;;;12.60;5.97;;;5.40;87.40;;;;;;5070079;28;20045;-70
2022/11/22 05:01:21;;;;;;;14.88;6.20;;;5.40;87.50;;;;;;5064983;28;20265;-70
2022/11/22 05:03:48;;;;;;;13.68;6.55;;;5.40;87.40;;;;;;5049942;28;20327;-70
2022/11/22 05:06:16;;;;;;;13.95;6.50;;;5.40;87.40;;;;;;5049999;28;20046;-70
2022/11/22 05:08:43;;;;;;;14.73;7.05;;;5.40;87.50;;;;;;5049933;28;20049;-70
2022/11/22 05:11:10;;;;;;;13.60;6.83;;;5.50;87.50;;;;;;5058698;28;20423;-70
2022/11/22 05:13:40;;;;;;;13.57;7.28;;;5.50;87.50;;;;;;5069292;28;20258;-70
2022/11/22 05:16:09;;;;;;;13.52;6.50;;;5.50;87.50;;;;;;5070712;28;20159;-70
2022/11/22 05:18:38;;;;;;;13.15;6.18;;;5.50;87.40;;;;;;5062242;28;20055;-70
2022/11/22 05:21:06;;;;;;;14.20;6.32;;;5.50;87.50;;;;;;5048995;28;20673;-70
2022/11/22 05:26:18;;;;;;;11.68;5.95;;;5.50;87.30;;;;;;5049458;28;20644;-70
2022/11/22 05:28:46;;;;;;;10.45;6.07;;;5.50;87.40;;;;;;5066833;28;20073;-70
2022/11/22 05:31:17;;;;;;;12.70;6.15;;;5.60;87.30;;;;;;5069530;28;20059;-70
2022/11/22 05:33:45;;;;;;;12.88;6.32;;;5.60;87.40;;;;;;5070978;28;20085;-70
2022/11/22 05:36:13;;;;;;;12.50;6.23;;;5.60;87.40;;;;;;5058754;28;20057;-70
2022/11/22 05:38:40;;;;;;;11.10;5.93;;;5.60;87.50;;;;;;5050535;28;20253;-70
2022/11/22 05:41:09;;;;;;;12.13;5.68;;;5.60;87.50;;;;;;5050485;28;20168;-70
2022/11/22 05:43:36;;;;;;;13.00;6.07;;;5.70;87.50;;;;;;5049269;28;20085;-70
2022/11/22 05:46:08;;;;;;;12.65;5.90;;;5.70;87.50;;;;;;5064908;28;20075;-70
2022/11/22 05:48:36;;;;;;;13.00;6.23;;;5.70;87.50;;;;;;5069439;28;20138;-70
2022/11/22 05:51:07;;;;;;;11.93;5.75;;;5.80;87.50;;;;;;5069429;28;20252;-70
2022/11/22 05:53:35;;;;;;;12.90;5.80;;;5.80;87.50;;;;;;5056597;28;20038;-70
2022/11/22 05:56:07;;;;;;;13.15;6.20;;;5.80;87.50;;;;;;5049177;28;20064;-70
2022/11/22 05:58:34;;;;;;;11.32;5.85;;;5.90;87.50;;;;;;5049229;28;20055;-70
2022/11/22 06:01:08;;;;;;;12.37;6.00;;;5.90;87.40;;;;;;5050906;28;20053;-69
2022/11/22 06:03:36;;;;;;;12.65;5.38;;;5.90;87.40;;;;;;5068763;28;20261;-70
2022/11/22 06:06:04;;;;;;;12.15;5.15;;;5.90;87.40;;;;;;5069216;28;20131;-70
2022/11/22 06:08:32;;;;;;;11.23;4.97;;;5.90;87.50;;;;;;5068976;28;20056;-70
2022/11/22 06:11:04;;;;;;;11.80;5.75;;;5.90;87.50;;;;;;5056150;28;20128;-70
2022/11/22 06:13:35;;;;;;;9.50;4.80;;;5.90;87.50;;;;;;5048854;28;20139;-70
2022/11/22 06:16:02;;;;;;;10.05;5.50;;;5.90;87.40;;;;;;5049089;28;20273;-70
2022/11/22 06:18:31;;;;;;;11.30;4.35;;;5.90;87.50;;;;;;5048891;28;20046;-70
2022/11/22 06:20:59;;;;;;;11.82;4.90;;;5.90;87.50;;;;;;5052040;28;20763;-70
2022/11/22 06:23:26;;;;;;;10.02;5.18;;;6.00;87.50;;;;;;5069719;28;20128;-70
2022/11/22 06:25:58;;;;;;;12.93;5.40;;;6.00;87.50;;;;;;5068723;28;20057;-70
2022/11/22 06:28:25;;;;;;;11.52;4.72;;;6.00;87.50;;;;;;5054289;28;20750;-70
2022/11/22 06:30:52;;;;;;;11.38;4.72;;;6.00;87.50;;;;;;5063320;28;20825;-70
2022/11/22 06:33:19;;;;;;;10.27;5.15;;;6.00;87.50;;;;;;5068142;28;20128;-70
2022/11/22 06:35:48;;;;;;;8.70;4.45;;;6.00;87.50;;;;;;5066561;28;20143;-70
2022/11/22 06:38:15;;;;;;;10.93;4.67;;;6.00;87.40;;;;;;4988586;28;20045;-70
2022/11/22 06:40:42;;;;;;;10.13;3.97;;;6.00;87.50;;;;;;5067779;28;20248;-70
2022/11/22 06:43:09;;;;;;;14.75;4.75;;;6.00;87.50;;;;;;5049424;28;20045;-70
2022/11/22 06:45:36;;;;;;;13.45;4.80;;;6.00;87.50;;;;;;5060978;28;20403;-70
2022/11/22 06:48:04;;;;;;;11.80;3.90;;;6.00;87.50;;;;;;5063418;28;20172;-70
2022/11/22 06:50:31;;;;;;;12.17;4.70;;;6.00;87.50;;;;;;5068453;28;20059;-70
2022/11/22 06:52:59;;;;;;;12.25;4.25;;;6.00;87.50;;;;;;5069239;28;20685;-70
2022/11/22 06:55:26;;;;;;;11.02;4.10;;;6.10;87.50;;;;;;5067537;28;20135;-70
2022/11/22 06:57:53;;;;;;;13.15;5.40;;;6.00;87.40;;;;;;5066968;28;20509;-70
2022/11/22 07:00:20;;;;;;;13.38;4.82;;;6.10;87.40;;;;;;5065014;28;20081;-70
2022/11/22 07:02:47;;;;;;;10.27;4.33;;;6.00;87.40;;;;;;5064348;28;20120;-70
2022/11/22 07:05:14;;;;;;;10.57;4.40;;;6.00;87.50;;;;;;5067047;28;20783;-70
2022/11/22 07:07:42;;;;;;;12.90;4.55;;;6.00;87.40;;;;;;5065453;28;20128;-70
2022/11/22 07:10:10;;;;;;;12.65;4.43;;;6.00;87.30;;;;;;5050744;28;20099;-70
2022/11/22 07:12:37;;;;;;;9.57;4.00;;;6.00;87.30;;;;;;5071485;28;20606;-70
2022/11/22 07:15:05;;;;;;;8.27;3.80;;;6.00;87.30;;;;;;5070528;28;20052;-70
2022/11/22 07:17:32;;;;;;;12.88;4.50;;;6.00;87.30;;;;;;5071170;28;20323;-70
2022/11/22 07:20:05;;;;;;;11.00;3.80;;;6.00;87.20;;;;;;5070795;28;20137;-70
2022/11/22 07:22:32;;;;;;;12.00;4.00;;;5.90;87.20;;;;;;5070219;28;20530;-70
2022/11/22 07:24:59;;;;;;;9.48;3.72;;;5.90;87.10;;;;;;5054224;28;20056;-70
2022/11/22 07:27:28;;;;;;;12.60;4.80;;;5.90;87.10;;;;;;5071344;28;20045;-70
2022/11/22 07:29:55;;;;;;;11.88;4.47;;;5.90;87.20;;;;;;5071257;28;20390;-70
2022/11/22 07:32:22;;;;;;;13.35;4.90;;;5.90;87.10;;;;;;5071681;28;20597;-70
2022/11/22 07:34:49;;;;;;;15.95;3.85;;;5.90;87.10;;;;;;5070802;28;20152;-70
2022/11/22 07:37:16;;;;;;;12.65;3.20;;;5.90;87.00;;;;;;5069276;28;20077;-70
2022/11/22 07:39:43;;;;;;;9.80;3.50;;;5.90;86.90;;;;;;5051421;28;20055;-70
2022/11/22 07:42:10;;;;;;;9.52;3.40;;;5.90;86.90;;;;;;5053009;28;20245;-70
2022/11/22 07:44:39;;;;;;;8.32;2.53;;;5.80;86.80;;;;;;5069349;28;20048;-70
2022/11/22 07:47:06;;;;;;;8.73;2.75;;;5.80;86.90;;;;;;5070527;28;20470;-70
2022/11/22 07:49:33;;;;;;;8.02;2.53;;;5.80;86.90;;;;;;5070090;28;20056;-71
2022/11/22 07:52:00;;;;;;;9.37;2.90;;;5.80;87.00;;;;;;5069641;28;20418;-69
2022/11/22 07:54:27;;;;;;;8.52;2.70;;;5.80;86.90;;;;;;5071627;28;20594;-70
2022/11/22 07:56:54;;;;;;;8.10;2.90;;;5.80;86.80;;;;;;5052450;28;20057;-69
2022/11/22 07:59:21;;;;;;;10.45;2.47;;;5.80;86.90;;;;;;5048933;28;20053;-70
2022/11/22 08:01:50;;;;;;;9.38;2.65;;;5.80;86.90;;;;;;5050251;28;20055;-70
2022/11/22 08:04:17;;;;;;;8.53;2.67;;;5.80;86.80;;;;;;5058261;28;20072;-70
2022/11/22 08:06:44;;;;;;;8.93;2.72;;;5.70;86.90;;;;;;5068917;28;20263;-70
2022/11/22 08:09:11;;;;;;;10.48;3.15;;;5.70;86.80;;;;;;5070008;28;20049;-70
2022/11/22 08:11:38;;;;;;;11.70;2.83;;;5.70;86.80;;;;;;5067078;28;20749;-70
2022/11/22 08:14:05;;;;;;;12.70;2.75;;;5.70;86.80;;;;;;5066006;28;20052;-70
2022/11/22 08:16:32;;;;;;;8.13;2.10;;;5.70;86.90;;;;;;5070462;28;20132;-70
2022/11/22 08:19:01;;;;;;;12.82;2.65;;;5.70;86.80;;;;;;5065666;28;20726;-70
2022/11/22 08:21:28;;;;;;;11.05;2.30;;;5.70;86.90;;;;;;5068179;28;20914;-70
2022/11/22 08:23:58;;;;;;;13.68;2.80;;;5.70;86.80;;;;;;5066937;28;20056;-70
2022/11/22 08:26:25;;;;;;;10.98;2.40;;;5.70;86.60;;;;;;5068251;28;20183;-70
2022/11/22 08:28:52;;;;;;;7.77;2.00;;;5.70;86.50;;;;;;5076422;28;20467;-70
2022/11/22 08:31:19;;;;;;;10.05;2.00;;;5.70;86.50;;;;;;5064901;28;20856;-70
2022/11/22 08:33:47;;;;;;;9.38;2.30;;;5.70;86.50;;;;;;5071244;28;20801;-71
2022/11/22 08:36:15;;;;;;;9.70;1.95;;;5.70;86.60;;;;;;5069247;28;20045;-70
2022/11/22 08:38:42;;;;;;;9.30;2.10;;;5.70;86.50;;;;;;5070055;28;20057;-70
2022/11/22 08:41:10;;;;;;;11.07;2.10;;;5.70;86.50;;;;;;5070480;28;20131;-70
2022/11/22 08:43:38;;;;;;;8.23;2.25;;;5.70;86.60;;;;;;5070965;28;20280;-71
2022/11/22 08:46:05;;;;;;;7.03;1.88;;;5.80;86.60;;;;;;5070973;28;20096;-70
2022/11/22 08:48:34;;;;;;;10.43;2.03;;;5.80;86.50;;;;;;5051407;28;20057;-70
2022/11/22 08:51:03;;;;;;;9.63;1.65;;;5.80;86.50;;;;;;5070771;28;20144;-70
2022/11/22 08:53:33;;;;;;;8.63;1.63;;;5.80;86.60;;;;;;5071095;28;20132;-69
2022/11/22 08:56:01;;;;;;;7.65;1.60;;;5.80;86.50;;;;;;5069969;28;20339;-69
2022/11/22 08:58:29;;;;;;;13.73;1.80;;;5.80;86.70;;;;;;5069583;28;20284;-70
2022/11/22 09:00:57;;;;;;;10.23;1.48;;;5.80;86.70;;;;;;5070687;28;20049;-69
2022/11/22 09:03:24;;;;;;;9.98;1.73;;;5.90;86.60;;;;;;5069405;28;20049;-71
2022/11/22 09:05:51;;;;;;;10.37;2.03;;;5.90;86.50;;;;;;5060232;28;20510;-71
2022/11/22 09:08:18;;;;;;;8.93;1.63;;;6.00;86.50;;;;;;5052974;28;20359;-73
2022/11/22 09:10:46;;;;;;;8.13;1.50;;;6.00;86.30;;;;;;5068289;28;20051;-74
2022/11/22 09:13:13;;;;;;;8.55;1.70;;;6.00;86.40;;;;;;5069372;28;20057;-73
2022/11/22 09:15:41;;;;;;;9.65;1.77;;;6.00;86.60;;;;;;5069316;28;20943;-72
2022/11/22 09:18:08;;;;;;;8.20;1.37;;;6.10;86.60;;;;;;5068498;28;20107;-72
2022/11/22 09:20:35;;;;;;;8.75;1.67;;;6.10;86.50;;;;;;5068987;28;20252;-72
2022/11/22 09:23:03;;;;;;;8.75;1.45;;;6.10;86.30;;;;;;5065794;28;20762;-72
2022/11/22 09:25:30;;;;;;;8.55;1.70;;;6.10;86.10;;;;;;5068383;28;20134;-72
2022/11/22 09:28:01;;;;;;;9.18;2.15;;;6.10;86.10;;;;;;5068568;28;20065;-72
2022/11/22 09:30:29;;;;;;;8.87;2.17;;;6.20;86.00;;;;;;5065116;28;20510;-72
2022/11/22 09:32:56;;;;;;;10.85;2.40;;;6.20;85.90;;;;;;5066935;28;20304;-72
2022/11/22 09:35:23;;;;;;;8.55;1.90;;;6.20;85.90;;;;;;5065879;28;20052;-72
2022/11/22 09:37:50;;;;;;;9.45;1.60;;;6.20;85.70;;;;;;5068803;28;20053;-72
2022/11/22 09:40:17;;;;;;;10.70;2.47;;;6.20;85.70;;;;;;5065758;28;20523;-72
2022/11/22 09:43:03;;;;;;;9.80;1.93;;;6.30;85.70;;;;;;5064647;28;20051;-72
2022/11/22 09:46:05;;;;;;;8.88;2.53;;;6.30;85.70;;;;;;5066064;28;20244;-72
2022/11/22 09:48:51;;;;;;;10.52;2.05;;;6.30;85.50;;;;;;5067320;28;20171;-73
2022/11/22 09:51:22;;;;;;;5.90;1.33;;;6.30;85.40;;;;;;5069005;28;20259;-72
2022/11/22 09:53:55;;;;;;;6.55;1.80;;;6.30;85.40;;;;;;5049676;28;20064;-73
2022/11/22 09:56:25;;;;;;;7.17;1.93;;;6.40;85.40;;;;;;5081194;28;20099;-73
2022/11/22 09:58:56;;;;;;;9.82;2.28;;;6.40;85.30;;;;;;5063384;28;20311;-73
2022/11/22 10:01:28;;;;;;;13.15;1.90;;;6.40;85.00;;;;;;5066726;28;20045;-73
2022/11/22 10:04:02;;;;;;;6.70;1.65;;;6.40;84.90;;;;;;5066249;28;20053;-73
2022/11/22 10:06:34;;;;;;;12.13;1.90;;;6.40;84.80;;;;;;5065999;28;20132;-73
2022/11/22 10:09:14;;;;;;;7.00;1.53;;;6.40;85.00;;;;;;5068601;28;20093;-73
2022/11/22 10:11:45;;;;;;;7.22;1.38;;;6.50;84.90;;;;;;5067176;28;20335;-73
2022/11/22 10:14:22;;;;;;;7.28;1.45;;;6.50;84.60;;;;;;5067710;28;20049;-73
2022/11/22 10:16:57;;;;;;;10.07;1.75;;;6.50;84.40;;;;;;5048195;28;20045;-73
2022/11/22 10:19:29;;;;;;;8.40;1.77;;;6.50;84.40;;;;;;5068579;28;20059;-73
2022/11/22 10:21:56;;;;;;;7.10;1.40;;;6.50;84.10;;;;;;5067569;28;20785;-73
2022/11/22 10:24:23;;;;;;;8.30;1.38;;;6.50;84.20;;;;;;5067010;28;20269;-73
2022/11/22 10:26:52;;;;;;;8.50;1.60;;;6.50;84.40;;;;;;5067672;28;20130;-73
2022/11/22 10:29:26;;;;;;;6.47;1.58;;;6.60;84.10;;;;;;5069152;28;20065;-74
2022/11/22 10:32:03;;;;;;;5.95;1.50;;;6.60;84.00;;;;;;5062219;28;20103;-73
2022/11/22 10:34:44;;;;;;;6.90;1.40;;;6.60;84.10;;;;;;5060520;28;20049;-73
2022/11/22 10:37:20;;;;;;;7.28;1.30;;;6.60;84.10;;;;;;5067647;28;20355;-72
2022/11/22 10:40:01;;;;;;;6.95;1.70;;;6.70;83.80;;;;;;5065907;28;20076;-72
2022/11/22 10:42:45;;;;;;;6.10;1.83;;;6.70;83.70;;;;;;5067587;28;20553;-73
2022/11/22 10:45:18;;;;;;;9.57;2.25;;;6.80;83.70;;;;;;5068805;28;20089;-73
2022/11/22 10:48:00;;;;;;;9.47;1.73;;;6.80;84.00;;;;;;5070127;28;20045;-72
2022/11/22 10:50:37;;;;;;;4.93;1.23;;;6.80;84.00;;;;;;5068750;28;20356;-73
2022/11/22 10:53:10;;;;;;;7.13;1.40;;;6.90;84.10;;;;;;5050719;28;20046;-72
2022/11/22 10:55:53;;;;;;;6.72;1.20;;;7.00;84.10;;;;;;5050779;28;20055;-72
2022/11/22 10:58:30;;;;;;;8.73;1.58;;;7.00;83.60;;;;;;5054986;28;20041;-72
2022/11/22 11:01:06;;;;;;;9.30;1.77;;;7.10;83.10;;;;;;5071403;28;20054;-72
2022/11/22 11:03:38;;;;;;;7.72;1.20;;;7.10;82.80;;;;;;5069853;28;20658;-72
2022/11/22 11:06:13;;;;;;;8.52;1.60;;;7.20;82.90;;;;;;5070119;28;20080;-73
2022/11/22 11:08:43;;;;;;;7.35;1.45;;;7.20;82.70;;;;;;5064269;28;20049;-74
2022/11/22 11:11:11;;;;;;;10.70;1.85;;;7.20;82.80;;;;;;5050858;28;20060;-74
2022/11/22 11:13:42;;;;;;;6.67;1.60;;;7.20;82.30;;;;;;5051438;28;20132;-74
2022/11/22 11:16:12;;;;;;;6.40;1.13;;;7.20;81.80;;;;;;5052179;28;20274;-74
2022/11/22 11:18:46;;;;;;;6.32;1.33;;;7.20;81.90;;;;;;5069856;28;20103;-73
2022/11/22 11:21:14;;;;;;;7.60;1.70;;;7.20;81.60;;;;;;5070022;28;20057;-74
2022/11/22 11:23:41;;;;;;;11.10;1.65;;;7.20;81.60;;;;;;5069231;28;20052;-74
2022/11/22 11:26:20;;;;;;;8.53;1.70;;;7.20;81.40;;;;;;5064819;28;20136;-74
2022/11/22 11:28:47;;;;;;;8.60;1.55;;;7.20;80.80;;;;;;5052170;28;20253;-73
2022/11/22 11:31:17;;;;;;;8.18;1.75;;;7.20;81.10;;;;;;5051083;28;20148;-73
2022/11/22 11:33:46;;;;;;;8.35;1.75;;;7.20;81.20;;;;;;5052410;28;20057;-73
2022/11/22 11:36:17;;;;;;;6.05;1.17;;;7.20;81.30;;;;;;5068804;28;20064;-72
2022/11/22 11:38:53;;;;;;;7.23;1.40;;;7.20;81.40;;;;;;5049102;28;20044;-74
2022/11/22 11:41:28;;;;;;;8.45;1.30;;;7.30;81.20;;;;;;5065821;28;20273;-74
2022/11/22 11:43:56;;;;;;;6.07;1.10;;;7.30;81.00;;;;;;5068019;28;20133;-74
2022/11/22 11:46:25;;;;;;;4.13;1.10;;;7.30;81.00;;;;;;5070590;28;20059;-74
2022/11/22 11:48:55;;;;;;;10.77;1.52;;;7.30;81.10;;;;;;5072647;28;20053;-74
2022/11/22 11:51:26;;;;;;;5.03;1.80;;;7.40;80.50;;;;;;5072636;28;20123;-74
2022/11/22 11:54:00;;;;;;;5.53;1.30;;;7.40;80.40;;;;;;5071089;28;20294;-74
2022/11/22 11:56:32;;;;;;;8.25;1.20;;;7.40;80.30;;;;;;5070997;28;20059;-75
2022/11/22 11:59:03;;;;;;;7.18;1.73;;;7.40;80.50;;;;;;5069694;28;20049;-74
2022/11/22 12:01:34;;;;;;;6.95;1.20;;;7.40;80.10;;;;;;5067032;28;20045;-75
2022/11/22 12:04:06;;;;;;;6.80;0.97;;;7.40;80.20;;;;;;5050569;28;20681;-74
2022/11/22 12:06:33;;;;;;;5.80;1.00;;;7.40;80.30;;;;;;5050766;28;20845;-74
2022/11/22 12:09:07;;;;;;;6.68;1.00;;;7.40;80.40;;;;;;5050369;28;20491;-74
2022/11/22 12:11:41;;;;;;;5.32;1.15;;;7.40;80.40;;;;;;5067813;28;20174;-75
2022/11/22 12:14:12;;;;;;;6.10;1.35;;;7.40;80.50;;;;;;5070974;28;20045;-74
2022/11/22 12:16:44;;;;;;;7.17;1.13;;;7.50;80.40;;;;;;5072124;28;20056;-75
2022/11/22 12:19:20;;;;;;;5.43;1.15;;;7.50;80.40;;;;;;5067433;28;20431;-74
2022/11/22 12:21:56;;;;;;;6.60;1.08;;;7.50;80.30;;;;;;5051913;28;20517;-74
2022/11/22 12:24:28;;;;;;;6.15;1.00;;;7.50;80.20;;;;;;5052036;28;20045;-74
2022/11/22 12:26:55;;;;;;;8.10;1.15;;;7.50;80.30;;;;;;5050216;28;20260;-74
2022/11/22 12:29:23;;;;;;;5.40;1.00;;;7.50;80.30;;;;;;5066034;28;20060;-74
2022/11/22 12:31:54;;;;;;;6.47;1.08;;;7.50;80.20;;;;;;5070287;28;20252;-73
2022/11/22 12:34:29;;;;;;;8.75;1.10;;;7.50;80.20;;;;;;5069856;28;20120;-71
2022/11/22 12:37:04;;;;;;;6.30;1.50;;;7.50;79.60;;;;;;5062526;28;20046;-72
2022/11/22 12:39:35;;;;;;;3.78;0.98;;;7.50;79.70;;;;;;5068813;28;20061;-72
2022/11/22 12:42:07;;;;;;;4.73;1.00;;;7.60;79.50;;;;;;5069097;28;20120;-72
2022/11/22 12:44:38;;;;;;;7.00;1.00;;;7.60;79.20;;;;;;5069112;28;20340;-72
2022/11/22 12:47:08;;;;;;;5.22;0.75;;;7.60;78.80;;;;;;5069429;28;20429;-72
2022/11/22 12:49:41;;;;;;;5.55;1.02;;;7.60;79.10;;;;;;5068416;28;20061;-71
2022/11/22 12:52:16;;;;;;;6.32;1.05;;;7.60;79.00;;;;;;5072379;28;20048;-69
2022/11/22 12:54:51;;;;;;;6.60;1.00;;;7.60;79.10;;;;;;5067727;28;20127;-72
2022/11/22 12:57:23;;;;;;;5.20;1.05;;;7.60;78.40;;;;;;5068578;28;20288;-71
2022/11/22 12:59:57;;;;;;;6.63;1.30;;;7.60;78.50;;;;;;5066658;28;20065;-69
2022/11/22 13:02:31;;;;;;;5.82;0.80;;;7.60;78.60;;;;;;5066902;28;20131;-72
2022/11/22 13:05:04;;;;;;;6.70;1.08;;;7.60;78.80;;;;;;5067111;28;20061;-70
2022/11/22 13:07:58;;;;;;;3.07;0.80;;;7.60;78.70;;;;;;5080796;22;20045;31
2022/11/22 13:10:33;;;;;;;5.85;1.20;;;7.60;78.60;;;;;;5045583;28;20335;-70
2022/11/22 13:13:02;;;;;;;4.90;0.80;;;7.60;78.40;;;;;;5047699;28;20132;-69
2022/11/22 13:15:32;;;;;;;5.90;0.90;;;7.60;78.30;;;;;;5049497;28;20053;-71